PWSweather.com
Personal Weather Stations
Station Observations
ISTOCKPO4
Cheadle HulmeGB SK8 6NZ

Cheadle HulmeGB SK8 6NZ

Lat: 53.363783, Lon: -2.1948438

Elevation: 261

Station Type: Davis VP2 with Daytime FARS

http://www.cheadlehulmeweather.co.uk

Latest ConditionsUpdated 12:00:05 PM GMT Friday, Jun 23, 2017
Currently Today's Max Today's Min Today's Average
Temperature 62.8°F17.1°C 63.0°F17.2°C 57.4°F14.1°C 59.0°F15.0°C
Dew Point 56.9°F13.8°C 57.4°F14.1°C 52.9°F11.6°C 54.5°F12.5°C
Winds 4.0 mph SW6.4 kmh SW 8.0 mph S12.9 kmh S - 5.7 mph 9.2 kmh
Wind Gusts 11.0 mph17.7 kmh 17.0 mph27.4 kmh - -
Humidity 81% 90% 80% 85%
Pressure 29.90 in1012.5 mb 29.91 in1012.9 mb 29.88 in1011.9 mb -
Hour Temp Dew Point Humidity Winds Wind Gusts Pressure Precip Precip Rate Daily Precip Total
12:00 PM 62.8°F17.1°C 56.9°F13.8°C 81% 4.0 mph SW6.4 kmh SW 11.0 mph17.7 kmh 29.90 in1012.5 mb 0.00 in0.0 mm 0.00 in0.0 mm 0.00 in0.0 mm
11:45 AM 62.8°F17.1°C 56.5°F13.6°C 80% 6.0 mph WSW9.7 kmh WSW 17.0 mph27.4 kmh 29.89 in1012.2 mb 0.00 in0.0 mm 0.00 in0.0 mm 0.00 in0.0 mm
11:30 AM 63.0°F17.2°C 57.4°F14.1°C 82% 5.0 mph SSW8.0 kmh SSW 11.0 mph17.7 kmh 29.89 in1012.2 mb 0.00 in0.0 mm 0.00 in0.0 mm 0.00 in0.0 mm
11:15 AM 62.8°F17.1°C 57.2°F14.0°C 82% 4.0 mph SSW6.4 kmh SSW 9.0 mph14.5 kmh 29.89 in1012.2 mb 0.00 in0.0 mm 0.00 in0.0 mm 0.00 in0.0 mm
11:00 AM 62.8°F17.1°C 57.2°F14.0°C 82% 5.0 mph S8.0 kmh S 9.0 mph14.5 kmh 29.89 in1012.2 mb 0.00 in0.0 mm 0.00 in0.0 mm 0.00 in0.0 mm
10:45 AM 62.6°F17.0°C 56.7°F13.7°C 81% 6.0 mph SSW9.7 kmh SSW 12.0 mph19.3 kmh 29.89 in1012.2 mb 0.00 in0.0 mm 0.00 in0.0 mm 0.00 in0.0 mm
10:30 AM 62.2°F16.8°C 57.0°F13.9°C 83% 5.0 mph SSW8.0 kmh SSW 12.0 mph19.3 kmh 29.89 in1012.2 mb 0.00 in0.0 mm 0.00 in0.0 mm 0.00 in0.0 mm
10:15 AM 61.5°F16.4°C 56.6°F13.7°C 84% 5.0 mph SSW8.0 kmh SSW 14.0 mph22.5 kmh 29.89 in1012.2 mb 0.00 in0.0 mm 0.00 in0.0 mm 0.00 in0.0 mm
10:00 AM 61.3°F16.3°C 56.5°F13.6°C 84% 6.0 mph SSW9.7 kmh SSW 16.0 mph25.7 kmh 29.89 in1012.2 mb 0.00 in0.0 mm 0.00 in0.0 mm 0.00 in0.0 mm
09:45 AM 60.8°F16.0°C 56.3°F13.5°C 85% 6.0 mph S9.7 kmh S 13.0 mph20.9 kmh 29.89 in1012.2 mb 0.00 in0.0 mm 0.00 in0.0 mm 0.00 in0.0 mm
09:30 AM 60.1°F15.6°C 55.9°F13.3°C 86% 7.0 mph SSW11.3 kmh SSW 15.0 mph24.1 kmh 29.89 in1012.2 mb 0.00 in0.0 mm 0.00 in0.0 mm 0.00 in0.0 mm
09:15 AM 59.5°F15.3°C 56.3°F13.5°C 89% 5.0 mph S8.0 kmh S 9.0 mph14.5 kmh 29.89 in1012.2 mb 0.00 in0.0 mm 0.00 in0.0 mm 0.00 in0.0 mm
09:00 AM 59.4°F15.2°C 56.1°F13.4°C 89% 5.0 mph S8.0 kmh S 10.0 mph16.1 kmh 29.89 in1012.2 mb 0.00 in0.0 mm 0.00 in0.0 mm 0.00 in0.0 mm
08:45 AM 59.0°F15.0°C 55.8°F13.2°C 89% 6.0 mph S9.7 kmh S 12.0 mph19.3 kmh 29.90 in1012.5 mb 0.00 in0.0 mm 0.00 in0.0 mm 0.00 in0.0 mm
08:30 AM 58.8°F14.9°C 55.6°F13.1°C 89% 6.0 mph S9.7 kmh S 11.0 mph17.7 kmh 29.90 in1012.5 mb 0.00 in0.0 mm 0.00 in0.0 mm 0.00 in0.0 mm
08:15 AM 59.0°F15.0°C 56.1°F13.4°C 90% 4.0 mph S6.4 kmh S 8.0 mph12.9 kmh 29.90 in1012.5 mb 0.00 in0.0 mm 0.00 in0.0 mm 0.00 in0.0 mm
08:00 AM 58.8°F14.9°C 55.6°F13.1°C 89% 5.0 mph SW8.0 kmh SW 10.0 mph16.1 kmh 29.89 in1012.2 mb 0.00 in0.0 mm 0.00 in0.0 mm 0.00 in0.0 mm
07:45 AM 59.2°F15.1°C 55.6°F13.1°C 88% 5.0 mph SW8.0 kmh SW 11.0 mph17.7 kmh 29.90 in1012.5 mb 0.00 in0.0 mm 0.00 in0.0 mm 0.00 in0.0 mm
07:30 AM 59.5°F15.3°C 55.0°F12.8°C 85% 5.0 mph SSW8.0 kmh SSW 10.0 mph16.1 kmh 29.90 in1012.5 mb 0.00 in0.0 mm 0.00 in0.0 mm 0.00 in0.0 mm
07:15 AM 59.5°F15.3°C 54.4°F12.4°C 83% 5.0 mph SSW8.0 kmh SSW 10.0 mph16.1 kmh 29.89 in1012.2 mb 0.00 in0.0 mm 0.00 in0.0 mm 0.00 in0.0 mm
07:00 AM 59.2°F15.1°C 54.0°F12.2°C 83% 7.0 mph S11.3 kmh S 14.0 mph22.5 kmh 29.89 in1012.2 mb 0.00 in0.0 mm 0.00 in0.0 mm 0.00 in0.0 mm
06:45 AM 59.0°F15.0°C 53.5°F11.9°C 82% 7.0 mph S11.3 kmh S 12.0 mph19.3 kmh 29.88 in1011.9 mb 0.00 in0.0 mm 0.00 in0.0 mm 0.00 in0.0 mm
06:30 AM 58.8°F14.9°C 53.3°F11.8°C 82% 7.0 mph S11.3 kmh S 13.0 mph20.9 kmh 29.89 in1012.2 mb 0.00 in0.0 mm 0.00 in0.0 mm 0.00 in0.0 mm
06:15 AM 58.8°F14.9°C 53.3°F11.8°C 82% 7.0 mph S11.3 kmh S 13.0 mph20.9 kmh 29.88 in1011.9 mb 0.00 in0.0 mm 0.00 in0.0 mm 0.00 in0.0 mm
06:00 AM 58.5°F14.7°C 53.3°F11.8°C 83% 7.0 mph S11.3 kmh S 11.0 mph17.7 kmh 29.88 in1011.9 mb 0.00 in0.0 mm 0.00 in0.0 mm 0.00 in0.0 mm
05:45 AM 58.3°F14.6°C 53.5°F11.9°C 84% 6.0 mph S9.7 kmh S 11.0 mph17.7 kmh 29.89 in1012.2 mb 0.00 in0.0 mm 0.00 in0.0 mm 0.00 in0.0 mm
05:30 AM 57.9°F14.4°C 53.4°F11.9°C 85% 6.0 mph S9.7 kmh S 11.0 mph17.7 kmh 29.89 in1012.2 mb 0.00 in0.0 mm 0.00 in0.0 mm 0.00 in0.0 mm
05:15 AM 57.9°F14.4°C 53.4°F11.9°C 85% 7.0 mph S11.3 kmh S 13.0 mph20.9 kmh 29.89 in1012.2 mb 0.00 in0.0 mm 0.00 in0.0 mm 0.00 in0.0 mm
05:00 AM 57.7°F14.3°C 53.3°F11.8°C 85% 8.0 mph S12.9 kmh S 15.0 mph24.1 kmh 29.89 in1012.2 mb 0.00 in0.0 mm 0.00 in0.0 mm 0.00 in0.0 mm
04:45 AM 57.7°F14.3°C 53.3°F11.8°C 85% 8.0 mph S12.9 kmh S 13.0 mph20.9 kmh 29.89 in1012.2 mb 0.00 in0.0 mm 0.00 in0.0 mm 0.00 in0.0 mm
04:30 AM 57.7°F14.3°C 53.3°F11.8°C 85% 7.0 mph SSW11.3 kmh SSW 13.0 mph20.9 kmh 29.89 in1012.2 mb 0.00 in0.0 mm 0.00 in0.0 mm 0.00 in0.0 mm
04:15 AM 57.7°F14.3°C 53.3°F11.8°C 85% 7.0 mph SSW11.3 kmh SSW 15.0 mph24.1 kmh 29.88 in1011.9 mb 0.00 in0.0 mm 0.00 in0.0 mm 0.00 in0.0 mm
04:00 AM 57.7°F14.3°C 53.3°F11.8°C 85% 6.0 mph SSW9.7 kmh SSW 13.0 mph20.9 kmh 29.88 in1011.9 mb 0.00 in0.0 mm 0.00 in0.0 mm 0.00 in0.0 mm
03:45 AM 57.6°F14.2°C 53.1°F11.7°C 85% 6.0 mph SSW9.7 kmh SSW 12.0 mph19.3 kmh 29.88 in1011.9 mb 0.00 in0.0 mm 0.00 in0.0 mm 0.00 in0.0 mm
03:30 AM 57.6°F14.2°C 53.1°F11.7°C 85% 6.0 mph SSW9.7 kmh SSW 12.0 mph19.3 kmh 29.88 in1011.9 mb 0.00 in0.0 mm 0.00 in0.0 mm 0.00 in0.0 mm
03:15 AM 57.7°F14.3°C 53.3°F11.8°C 85% 7.0 mph S11.3 kmh S 14.0 mph22.5 kmh 29.88 in1011.9 mb 0.00 in0.0 mm 0.00 in0.0 mm 0.00 in0.0 mm
03:00 AM 57.7°F14.3°C 53.3°F11.8°C 85% 7.0 mph S11.3 kmh S 12.0 mph19.3 kmh 29.88 in1011.9 mb 0.00 in0.0 mm 0.00 in0.0 mm 0.00 in0.0 mm
02:45 AM 57.6°F14.2°C 53.4°F11.9°C 86% 5.0 mph S8.0 kmh S 9.0 mph14.5 kmh 29.88 in1011.9 mb 0.00 in0.0 mm 0.00 in0.0 mm 0.00 in0.0 mm
02:30 AM 57.4°F14.1°C 52.9°F11.6°C 85% 6.0 mph S9.7 kmh S 10.0 mph16.1 kmh 29.88 in1011.9 mb 0.00 in0.0 mm 0.00 in0.0 mm 0.00 in0.0 mm
02:15 AM 57.4°F14.1°C 52.9°F11.6°C 85% 5.0 mph S8.0 kmh S 13.0 mph20.9 kmh 29.88 in1011.9 mb 0.00 in0.0 mm 0.00 in0.0 mm 0.00 in0.0 mm
02:00 AM 57.4°F14.1°C 52.9°F11.6°C 85% 6.0 mph S9.7 kmh S 13.0 mph20.9 kmh 29.89 in1012.2 mb 0.00 in0.0 mm 0.00 in0.0 mm 0.00 in0.0 mm
01:45 AM 57.4°F14.1°C 52.9°F11.6°C 85% 6.0 mph S9.7 kmh S 11.0 mph17.7 kmh 29.89 in1012.2 mb 0.00 in0.0 mm 0.00 in0.0 mm 0.00 in0.0 mm
01:30 AM 57.4°F14.1°C 53.2°F11.8°C 86% 4.0 mph SSW6.4 kmh SSW 10.0 mph16.1 kmh 29.90 in1012.5 mb 0.00 in0.0 mm 0.00 in0.0 mm 0.00 in0.0 mm
01:15 AM 57.4°F14.1°C 53.2°F11.8°C 86% 4.0 mph S6.4 kmh S 10.0 mph16.1 kmh 29.90 in1012.5 mb 0.00 in0.0 mm 0.00 in0.0 mm 0.00 in0.0 mm
01:00 AM 57.4°F14.1°C 52.9°F11.6°C 85% 4.0 mph SSW6.4 kmh SSW 9.0 mph14.5 kmh 29.90 in1012.5 mb 0.00 in0.0 mm 0.00 in0.0 mm 0.00 in0.0 mm
12:45 AM 57.7°F14.3°C 53.3°F11.8°C 85% 5.0 mph S8.0 kmh S 11.0 mph17.7 kmh 29.91 in1012.9 mb 0.00 in0.0 mm 0.00 in0.0 mm 0.00 in0.0 mm
12:30 AM 57.7°F14.3°C 53.3°F11.8°C 85% 5.0 mph S8.0 kmh S 9.0 mph14.5 kmh 29.91 in1012.9 mb 0.00 in0.0 mm 0.00 in0.0 mm 0.00 in0.0 mm
12:15 AM 57.7°F14.3°C 53.3°F11.8°C 85% 4.0 mph SSW6.4 kmh SSW 13.0 mph20.9 kmh 29.91 in1012.9 mb 0.00 in0.0 mm 0.00 in0.0 mm 0.00 in0.0 mm
12:00 AM 57.7°F14.3°C 53.9°F12.2°C 87% 5.0 mph S8.0 kmh S 10.0 mph16.1 kmh 29.91 in1012.9 mb 0.00 in0.0 mm 0.00 in0.0 mm 0.00 in0.0 mm